sensor_id;sensor_type;location;lat;lon;timestamp;P1;durP1;ratioP1;P2;durP2;ratioP2
19951;SDS011;10137;49.406;19.484;2023-03-29T00:01:18;16.90;;;9.17;;
19951;SDS011;10137;49.406;19.484;2023-03-29T00:03:46;15.27;;;8.43;;
19951;SDS011;10137;49.406;19.484;2023-03-29T00:06:15;13.50;;;7.60;;
19951;SDS011;10137;49.406;19.484;2023-03-29T00:08:47;15.60;;;7.37;;
19951;SDS011;10137;49.406;19.484;2023-03-29T00:11:20;12.37;;;6.63;;
19951;SDS011;10137;49.406;19.484;2023-03-29T00:13:48;12.30;;;6.80;;
19951;SDS011;10137;49.406;19.484;2023-03-29T00:16:17;10.63;;;6.63;;
19951;SDS011;10137;49.406;19.484;2023-03-29T00:18:45;13.00;;;6.13;;
19951;SDS011;10137;49.406;19.484;2023-03-29T00:21:15;11.80;;;6.77;;
19951;SDS011;10137;49.406;19.484;2023-03-29T00:23:44;11.47;;;5.80;;
19951;SDS011;10137;49.406;19.484;2023-03-29T00:26:12;10.83;;;6.00;;
19951;SDS011;10137;49.406;19.484;2023-03-29T00:28:42;8.77;;;5.47;;
19951;SDS011;10137;49.406;19.484;2023-03-29T00:31:11;11.10;;;5.93;;
19951;SDS011;10137;49.406;19.484;2023-03-29T00:33:41;12.67;;;6.23;;
19951;SDS011;10137;49.406;19.484;2023-03-29T00:36:10;12.83;;;6.17;;
19951;SDS011;10137;49.406;19.484;2023-03-29T00:38:38;12.53;;;6.07;;
19951;SDS011;10137;49.406;19.484;2023-03-29T00:41:07;14.00;;;6.97;;
19951;SDS011;10137;49.406;19.484;2023-03-29T00:43:53;12.97;;;6.80;;
19951;SDS011;10137;49.406;19.484;2023-03-29T00:46:24;10.60;;;6.33;;
19951;SDS011;10137;49.406;19.484;2023-03-29T00:48:53;16.00;;;6.00;;
19951;SDS011;10137;49.406;19.484;2023-03-29T00:51:25;11.33;;;6.23;;
19951;SDS011;10137;49.406;19.484;2023-03-29T00:53:57;12.00;;;5.97;;
19951;SDS011;10137;49.406;19.484;2023-03-29T00:56:30;10.57;;;5.97;;
19951;SDS011;10137;49.406;19.484;2023-03-29T00:59:04;11.13;;;6.03;;
19951;SDS011;10137;49.406;19.484;2023-03-29T01:01:37;11.33;;;6.57;;
19951;SDS011;10137;49.406;19.484;2023-03-29T01:04:11;11.17;;;6.00;;
19951;SDS011;10137;49.406;19.484;2023-03-29T01:06:44;12.97;;;6.73;;
19951;SDS011;10137;49.406;19.484;2023-03-29T01:09:16;11.90;;;6.70;;
19951;SDS011;10137;49.406;19.484;2023-03-29T01:11:49;12.47;;;7.43;;
19951;SDS011;10137;49.406;19.484;2023-03-29T01:14:22;13.83;;;8.07;;
19951;SDS011;10137;49.406;19.484;2023-03-29T01:16:56;10.97;;;6.33;;
19951;SDS011;10137;49.406;19.484;2023-03-29T01:19:26;10.30;;;6.57;;
19951;SDS011;10137;49.406;19.484;2023-03-29T01:21:59;14.83;;;6.13;;
19951;SDS011;10137;49.406;19.484;2023-03-29T01:24:43;14.83;;;7.10;;
19951;SDS011;10137;49.406;19.484;2023-03-29T01:30:04;11.47;;;5.87;;
19951;SDS011;10137;49.406;19.484;2023-03-29T01:32:41;11.00;;;5.97;;
19951;SDS011;10137;49.406;19.484;2023-03-29T01:35:14;11.10;;;5.87;;
19951;SDS011;10137;49.406;19.484;2023-03-29T01:37:47;10.93;;;5.80;;
19951;SDS011;10137;49.406;19.484;2023-03-29T01:40:22;13.47;;;6.03;;
19951;SDS011;10137;49.406;19.484;2023-03-29T01:42:54;11.90;;;6.73;;
19951;SDS011;10137;49.406;19.484;2023-03-29T01:45:28;11.43;;;5.53;;
19951;SDS011;10137;49.406;19.484;2023-03-29T01:48:00;9.13;;;5.67;;
19951;SDS011;10137;49.406;19.484;2023-03-29T01:50:37;9.47;;;6.13;;
19951;SDS011;10137;49.406;19.484;2023-03-29T01:53:08;10.97;;;6.10;;
19951;SDS011;10137;49.406;19.484;2023-03-29T01:55:44;15.57;;;6.43;;
19951;SDS011;10137;49.406;19.484;2023-03-29T01:58:18;11.17;;;6.30;;
19951;SDS011;10137;49.406;19.484;2023-03-29T02:00:50;13.13;;;6.73;;
19951;SDS011;10137;49.406;19.484;2023-03-29T02:03:21;12.50;;;7.27;;
19951;SDS011;10137;49.406;19.484;2023-03-29T02:05:52;14.00;;;6.70;;
19951;SDS011;10137;49.406;19.484;2023-03-29T02:08:22;11.37;;;6.37;;
19951;SDS011;10137;49.406;19.484;2023-03-29T02:10:52;13.00;;;6.80;;
19951;SDS011;10137;49.406;19.484;2023-03-29T02:13:22;10.60;;;5.83;;
19951;SDS011;10137;49.406;19.484;2023-03-29T02:15:50;11.43;;;6.00;;
19951;SDS011;10137;49.406;19.484;2023-03-29T02:18:18;13.70;;;7.07;;
19951;SDS011;10137;49.406;19.484;2023-03-29T02:20:47;12.60;;;9.70;;
19951;SDS011;10137;49.406;19.484;2023-03-29T02:23:19;11.10;;;8.30;;
19951;SDS011;10137;49.406;19.484;2023-03-29T02:25:52;11.17;;;7.90;;
19951;SDS011;10137;49.406;19.484;2023-03-29T02:28:23;10.20;;;5.90;;
19951;SDS011;10137;49.406;19.484;2023-03-29T02:30:53;10.17;;;7.20;;
19951;SDS011;10137;49.406;19.484;2023-03-29T02:33:29;9.93;;;5.93;;
19951;SDS011;10137;49.406;19.484;2023-03-29T02:36:01;10.57;;;5.77;;
19951;SDS011;10137;49.406;19.484;2023-03-29T02:38:32;14.00;;;8.20;;
19951;SDS011;10137;49.406;19.484;2023-03-29T02:41:01;15.30;;;8.30;;
19951;SDS011;10137;49.406;19.484;2023-03-29T02:43:32;14.97;;;7.57;;
19951;SDS011;10137;49.406;19.484;2023-03-29T02:46:01;12.70;;;7.90;;
19951;SDS011;10137;49.406;19.484;2023-03-29T02:48:31;14.80;;;9.40;;
19951;SDS011;10137;49.406;19.484;2023-03-29T02:51:04;13.67;;;7.90;;
19951;SDS011;10137;49.406;19.484;2023-03-29T02:53:39;14.30;;;9.20;;
19951;SDS011;10137;49.406;19.484;2023-03-29T02:56:12;13.60;;;8.37;;
19951;SDS011;10137;49.406;19.484;2023-03-29T02:58:42;15.57;;;7.13;;
19951;SDS011;10137;49.406;19.484;2023-03-29T03:01:10;12.97;;;8.00;;
19951;SDS011;10137;49.406;19.484;2023-03-29T03:03:39;14.43;;;7.53;;
19951;SDS011;10137;49.406;19.484;2023-03-29T03:06:08;13.20;;;6.53;;
19951;SDS011;10137;49.406;19.484;2023-03-29T03:08:37;13.00;;;6.27;;
19951;SDS011;10137;49.406;19.484;2023-03-29T03:11:05;11.60;;;6.00;;
19951;SDS011;10137;49.406;19.484;2023-03-29T03:13:34;11.20;;;6.00;;
19951;SDS011;10137;49.406;19.484;2023-03-29T03:16:04;11.83;;;6.20;;
19951;SDS011;10137;49.406;19.484;2023-03-29T03:18:33;13.17;;;6.27;;
19951;SDS011;10137;49.406;19.484;2023-03-29T03:21:01;13.77;;;6.33;;
19951;SDS011;10137;49.406;19.484;2023-03-29T03:23:29;11.57;;;6.00;;
19951;SDS011;10137;49.406;19.484;2023-03-29T03:25:57;12.07;;;6.53;;
19951;SDS011;10137;49.406;19.484;2023-03-29T03:28:25;11.33;;;6.33;;
19951;SDS011;10137;49.406;19.484;2023-03-29T03:30:54;13.17;;;6.27;;
19951;SDS011;10137;49.406;19.484;2023-03-29T03:33:24;15.63;;;6.50;;
19951;SDS011;10137;49.406;19.484;2023-03-29T03:35:53;18.90;;;7.50;;
19951;SDS011;10137;49.406;19.484;2023-03-29T03:38:22;14.47;;;6.50;;
19951;SDS011;10137;49.406;19.484;2023-03-29T03:40:53;13.07;;;6.33;;
19951;SDS011;10137;49.406;19.484;2023-03-29T03:43:21;14.30;;;6.37;;
19951;SDS011;10137;49.406;19.484;2023-03-29T03:45:49;11.83;;;6.37;;
19951;SDS011;10137;49.406;19.484;2023-03-29T03:48:18;11.87;;;6.50;;
19951;SDS011;10137;49.406;19.484;2023-03-29T03:50:48;17.70;;;9.13;;
19951;SDS011;10137;49.406;19.484;2023-03-29T03:53:17;22.27;;;14.03;;
19951;SDS011;10137;49.406;19.484;2023-03-29T03:55:46;16.67;;;11.10;;
19951;SDS011;10137;49.406;19.484;2023-03-29T03:58:15;14.27;;;9.87;;
19951;SDS011;10137;49.406;19.484;2023-03-29T04:00:46;17.43;;;10.80;;
19951;SDS011;10137;49.406;19.484;2023-03-29T04:03:15;16.90;;;7.60;;
19951;SDS011;10137;49.406;19.484;2023-03-29T04:05:44;13.00;;;8.03;;
19951;SDS011;10137;49.406;19.484;2023-03-29T04:08:15;14.70;;;8.77;;
19951;SDS011;10137;49.406;19.484;2023-03-29T04:10:50;16.23;;;8.13;;
19951;SDS011;10137;49.406;19.484;2023-03-29T04:13:19;13.97;;;8.50;;
19951;SDS011;10137;49.406;19.484;2023-03-29T04:15:48;15.80;;;8.10;;
19951;SDS011;10137;49.406;19.484;2023-03-29T04:18:19;18.10;;;8.70;;
19951;SDS011;10137;49.406;19.484;2023-03-29T04:20:48;16.43;;;7.60;;
19951;SDS011;10137;49.406;19.484;2023-03-29T04:23:18;12.47;;;7.40;;
19951;SDS011;10137;49.406;19.484;2023-03-29T04:25:46;19.13;;;9.03;;
19951;SDS011;10137;49.406;19.484;2023-03-29T04:28:14;18.77;;;9.97;;
19951;SDS011;10137;49.406;19.484;2023-03-29T04:30:44;22.43;;;10.33;;
19951;SDS011;10137;49.406;19.484;2023-03-29T04:33:12;18.87;;;8.97;;
19951;SDS011;10137;49.406;19.484;2023-03-29T04:35:40;17.40;;;8.53;;
19951;SDS011;10137;49.406;19.484;2023-03-29T04:38:12;14.93;;;8.10;;
19951;SDS011;10137;49.406;19.484;2023-03-29T04:40:44;16.47;;;8.30;;
19951;SDS011;10137;49.406;19.484;2023-03-29T04:43:15;16.43;;;8.60;;
19951;SDS011;10137;49.406;19.484;2023-03-29T04:45:44;16.07;;;8.03;;
19951;SDS011;10137;49.406;19.484;2023-03-29T04:48:14;21.87;;;8.80;;
19951;SDS011;10137;49.406;19.484;2023-03-29T04:50:44;15.10;;;8.53;;
19951;SDS011;10137;49.406;19.484;2023-03-29T04:53:17;17.57;;;10.63;;
19951;SDS011;10137;49.406;19.484;2023-03-29T04:55:50;19.63;;;9.40;;
19951;SDS011;10137;49.406;19.484;2023-03-29T04:58:20;24.13;;;10.37;;
19951;SDS011;10137;49.406;19.484;2023-03-29T05:00:49;21.10;;;10.17;;
19951;SDS011;10137;49.406;19.484;2023-03-29T05:03:19;22.43;;;10.90;;
19951;SDS011;10137;49.406;19.484;2023-03-29T05:05:48;18.60;;;10.33;;
19951;SDS011;10137;49.406;19.484;2023-03-29T05:08:15;21.53;;;10.27;;
19951;SDS011;10137;49.406;19.484;2023-03-29T05:10:44;23.63;;;10.20;;
19951;SDS011;10137;49.406;19.484;2023-03-29T05:13:14;20.00;;;10.23;;
19951;SDS011;10137;49.406;19.484;2023-03-29T05:15:43;22.80;;;11.27;;
19951;SDS011;10137;49.406;19.484;2023-03-29T05:18:11;24.37;;;11.80;;
19951;SDS011;10137;49.406;19.484;2023-03-29T05:20:39;27.70;;;12.20;;
19951;SDS011;10137;49.406;19.484;2023-03-29T05:23:07;26.27;;;12.10;;
19951;SDS011;10137;49.406;19.484;2023-03-29T05:25:36;21.07;;;11.63;;
19951;SDS011;10137;49.406;19.484;2023-03-29T05:28:04;22.03;;;10.63;;
19951;SDS011;10137;49.406;19.484;2023-03-29T05:30:34;26.97;;;12.07;;
19951;SDS011;10137;49.406;19.484;2023-03-29T05:33:02;21.50;;;10.47;;
19951;SDS011;10137;49.406;19.484;2023-03-29T05:35:30;38.57;;;14.57;;
19951;SDS011;10137;49.406;19.484;2023-03-29T05:37:59;30.07;;;11.67;;
19951;SDS011;10137;49.406;19.484;2023-03-29T05:40:27;24.37;;;11.73;;
19951;SDS011;10137;49.406;19.484;2023-03-29T05:42:56;29.27;;;12.17;;
19951;SDS011;10137;49.406;19.484;2023-03-29T05:45:27;28.83;;;12.60;;
19951;SDS011;10137;49.406;19.484;2023-03-29T05:48:10;25.77;;;12.43;;
19951;SDS011;10137;49.406;19.484;2023-03-29T05:50:38;33.67;;;12.87;;
19951;SDS011;10137;49.406;19.484;2023-03-29T05:53:06;29.50;;;14.03;;
19951;SDS011;10137;49.406;19.484;2023-03-29T05:55:35;26.23;;;12.23;;
19951;SDS011;10137;49.406;19.484;2023-03-29T05:58:03;23.93;;;11.37;;
19951;SDS011;10137;49.406;19.484;2023-03-29T06:00:31;25.67;;;10.90;;
19951;SDS011;10137;49.406;19.484;2023-03-29T06:03:03;23.30;;;11.10;;
19951;SDS011;10137;49.406;19.484;2023-03-29T06:05:32;23.10;;;11.00;;
19951;SDS011;10137;49.406;19.484;2023-03-29T06:08:02;20.30;;;11.13;;
19951;SDS011;10137;49.406;19.484;2023-03-29T06:10:30;21.43;;;10.97;;
19951;SDS011;10137;49.406;19.484;2023-03-29T06:12:59;24.30;;;11.73;;
19951;SDS011;10137;49.406;19.484;2023-03-29T06:15:27;20.13;;;10.97;;
19951;SDS011;10137;49.406;19.484;2023-03-29T06:17:55;22.00;;;11.10;;
19951;SDS011;10137;49.406;19.484;2023-03-29T06:20:23;40.43;;;21.43;;
19951;SDS011;10137;49.406;19.484;2023-03-29T06:22:53;32.20;;;17.30;;
19951;SDS011;10137;49.406;19.484;2023-03-29T06:25:21;21.97;;;11.70;;
19951;SDS011;10137;49.406;19.484;2023-03-29T06:27:50;20.87;;;10.90;;
19951;SDS011;10137;49.406;19.484;2023-03-29T06:30:19;22.97;;;10.83;;
19951;SDS011;10137;49.406;19.484;2023-03-29T06:32:46;20.90;;;11.63;;
19951;SDS011;10137;49.406;19.484;2023-03-29T06:35:15;22.27;;;11.77;;
19951;SDS011;10137;49.406;19.484;2023-03-29T06:37:44;24.17;;;11.70;;
19951;SDS011;10137;49.406;19.484;2023-03-29T06:40:17;25.97;;;13.07;;
19951;SDS011;10137;49.406;19.484;2023-03-29T06:42:46;26.03;;;12.47;;
19951;SDS011;10137;49.406;19.484;2023-03-29T06:45:16;20.10;;;10.87;;
19951;SDS011;10137;49.406;19.484;2023-03-29T06:47:44;19.40;;;10.33;;
19951;SDS011;10137;49.406;19.484;2023-03-29T06:50:12;20.13;;;9.97;;
19951;SDS011;10137;49.406;19.484;2023-03-29T06:52:43;19.50;;;9.90;;
19951;SDS011;10137;49.406;19.484;2023-03-29T06:55:11;17.00;;;9.70;;
19951;SDS011;10137;49.406;19.484;2023-03-29T06:57:42;19.87;;;10.17;;
19951;SDS011;10137;49.406;19.484;2023-03-29T07:00:11;18.23;;;9.47;;
19951;SDS011;10137;49.406;19.484;2023-03-29T07:02:43;18.87;;;9.20;;
19951;SDS011;10137;49.406;19.484;2023-03-29T07:05:12;20.23;;;9.57;;
19951;SDS011;10137;49.406;19.484;2023-03-29T07:07:42;17.07;;;9.43;;
19951;SDS011;10137;49.406;19.484;2023-03-29T07:10:22;16.93;;;9.70;;
19951;SDS011;10137;49.406;19.484;2023-03-29T07:12:54;18.20;;;9.83;;
19951;SDS011;10137;49.406;19.484;2023-03-29T07:15:23;17.37;;;9.50;;
19951;SDS011;10137;49.406;19.484;2023-03-29T07:17:51;21.30;;;10.90;;
19951;SDS011;10137;49.406;19.484;2023-03-29T07:20:19;19.47;;;10.17;;
19951;SDS011;10137;49.406;19.484;2023-03-29T07:22:48;21.73;;;10.60;;
19951;SDS011;10137;49.406;19.484;2023-03-29T07:25:18;17.17;;;9.90;;
19951;SDS011;10137;49.406;19.484;2023-03-29T07:27:47;20.70;;;10.33;;
19951;SDS011;10137;49.406;19.484;2023-03-29T07:30:19;20.73;;;10.40;;
19951;SDS011;10137;49.406;19.484;2023-03-29T07:32:53;15.13;;;8.47;;
19951;SDS011;10137;49.406;19.484;2023-03-29T07:35:24;17.90;;;9.43;;
19951;SDS011;10137;49.406;19.484;2023-03-29T07:37:52;17.03;;;8.97;;
19951;SDS011;10137;49.406;19.484;2023-03-29T07:40:22;16.40;;;8.87;;
19951;SDS011;10137;49.406;19.484;2023-03-29T07:42:52;17.30;;;8.83;;
19951;SDS011;10137;49.406;19.484;2023-03-29T07:45:23;14.97;;;8.10;;
19951;SDS011;10137;49.406;19.484;2023-03-29T07:47:54;16.60;;;9.07;;
19951;SDS011;10137;49.406;19.484;2023-03-29T07:50:23;15.43;;;8.07;;
19951;SDS011;10137;49.406;19.484;2023-03-29T07:52:52;14.73;;;8.17;;
19951;SDS011;10137;49.406;19.484;2023-03-29T07:55:22;14.93;;;7.87;;
19951;SDS011;10137;49.406;19.484;2023-03-29T07:57:50;15.60;;;8.03;;
19951;SDS011;10137;49.406;19.484;2023-03-29T08:00:23;12.60;;;7.77;;
19951;SDS011;10137;49.406;19.484;2023-03-29T08:02:51;14.03;;;7.87;;
19951;SDS011;10137;49.406;19.484;2023-03-29T08:05:20;11.73;;;6.33;;
19951;SDS011;10137;49.406;19.484;2023-03-29T08:07:49;16.47;;;5.63;;
19951;SDS011;10137;49.406;19.484;2023-03-29T08:10:17;10.70;;;5.80;;
19951;SDS011;10137;49.406;19.484;2023-03-29T08:12:47;9.23;;;5.30;;
19951;SDS011;10137;49.406;19.484;2023-03-29T08:15:17;11.10;;;5.40;;
19951;SDS011;10137;49.406;19.484;2023-03-29T08:17:50;10.53;;;5.50;;
19951;SDS011;10137;49.406;19.484;2023-03-29T08:20:18;9.20;;;5.40;;
19951;SDS011;10137;49.406;19.484;2023-03-29T08:22:46;11.27;;;5.23;;
19951;SDS011;10137;49.406;19.484;2023-03-29T08:25:14;12.60;;;4.80;;
19951;SDS011;10137;49.406;19.484;2023-03-29T08:27:43;8.03;;;4.40;;
19951;SDS011;10137;49.406;19.484;2023-03-29T08:30:11;7.73;;;4.47;;
19951;SDS011;10137;49.406;19.484;2023-03-29T08:32:40;7.00;;;4.10;;
19951;SDS011;10137;49.406;19.484;2023-03-29T08:35:10;7.13;;;4.40;;
19951;SDS011;10137;49.406;19.484;2023-03-29T08:37:38;8.73;;;4.87;;
19951;SDS011;10137;49.406;19.484;2023-03-29T08:40:06;10.30;;;4.17;;
19951;SDS011;10137;49.406;19.484;2023-03-29T08:42:47;7.23;;;3.93;;
19951;SDS011;10137;49.406;19.484;2023-03-29T08:45:33;7.10;;;3.67;;
19951;SDS011;10137;49.406;19.484;2023-03-29T08:48:07;5.90;;;3.53;;
19951;SDS011;10137;49.406;19.484;2023-03-29T08:50:46;8.23;;;3.30;;
19951;SDS011;10137;49.406;19.484;2023-03-29T08:53:19;6.83;;;3.60;;
19951;SDS011;10137;49.406;19.484;2023-03-29T08:55:51;8.00;;;3.80;;
19951;SDS011;10137;49.406;19.484;2023-03-29T08:58:23;6.70;;;4.00;;
19951;SDS011;10137;49.406;19.484;2023-03-29T09:00:55;6.90;;;3.40;;
19951;SDS011;10137;49.406;19.484;2023-03-29T09:03:25;8.37;;;4.37;;
19951;SDS011;10137;49.406;19.484;2023-03-29T09:06:02;11.83;;;5.23;;
19951;SDS011;10137;49.406;19.484;2023-03-29T09:08:33;11.10;;;5.73;;
19951;SDS011;10137;49.406;19.484;2023-03-29T09:11:09;13.40;;;6.40;;
19951;SDS011;10137;49.406;19.484;2023-03-29T09:13:50;10.73;;;6.53;;
19951;SDS011;10137;49.406;19.484;2023-03-29T09:16:28;15.97;;;6.70;;
19951;SDS011;10137;49.406;19.484;2023-03-29T09:19:01;10.27;;;5.10;;
19951;SDS011;10137;49.406;19.484;2023-03-29T09:21:39;8.07;;;4.93;;
19951;SDS011;10137;49.406;19.484;2023-03-29T09:27:06;6.00;;;3.47;;
19951;SDS011;10137;49.406;19.484;2023-03-29T09:29:39;6.53;;;3.50;;
19951;SDS011;10137;49.406;19.484;2023-03-29T09:32:16;9.93;;;3.57;;
19951;SDS011;10137;49.406;19.484;2023-03-29T09:34:48;10.83;;;3.70;;
19951;SDS011;10137;49.406;19.484;2023-03-29T09:37:27;4.73;;;3.07;;
19951;SDS011;10137;49.406;19.484;2023-03-29T09:39:59;5.83;;;3.70;;
19951;SDS011;10137;49.406;19.484;2023-03-29T09:42:29;5.13;;;2.73;;
19951;SDS011;10137;49.406;19.484;2023-03-29T09:44:59;14.67;;;3.70;;
19951;SDS011;10137;49.406;19.484;2023-03-29T09:47:34;4.93;;;2.60;;
19951;SDS011;10137;49.406;19.484;2023-03-29T09:50:08;4.50;;;2.73;;
19951;SDS011;10137;49.406;19.484;2023-03-29T09:52:40;4.30;;;3.00;;
19951;SDS011;10137;49.406;19.484;2023-03-29T09:55:12;5.87;;;3.30;;
19951;SDS011;10137;49.406;19.484;2023-03-29T09:57:41;5.83;;;3.00;;
19951;SDS011;10137;49.406;19.484;2023-03-29T10:00:10;5.57;;;3.10;;
19951;SDS011;10137;49.406;19.484;2023-03-29T10:02:40;4.57;;;2.57;;
19951;SDS011;10137;49.406;19.484;2023-03-29T10:05:14;3.97;;;2.60;;
19951;SDS011;10137;49.406;19.484;2023-03-29T10:07:46;6.77;;;3.77;;
19951;SDS011;10137;49.406;19.484;2023-03-29T10:10:20;5.00;;;3.30;;
19951;SDS011;10137;49.406;19.484;2023-03-29T10:12:51;5.00;;;2.70;;
19951;SDS011;10137;49.406;19.484;2023-03-29T10:15:20;4.53;;;2.40;;
19951;SDS011;10137;49.406;19.484;2023-03-29T10:17:48;3.90;;;2.83;;
19951;SDS011;10137;49.406;19.484;2023-03-29T10:20:25;5.53;;;2.63;;
19951;SDS011;10137;49.406;19.484;2023-03-29T10:22:55;4.27;;;2.80;;
19951;SDS011;10137;49.406;19.484;2023-03-29T10:25:26;3.77;;;2.60;;
19951;SDS011;10137;49.406;19.484;2023-03-29T10:27:57;3.80;;;2.63;;
19951;SDS011;10137;49.406;19.484;2023-03-29T10:30:33;3.57;;;2.50;;
19951;SDS011;10137;49.406;19.484;2023-03-29T10:33:04;3.77;;;2.03;;
19951;SDS011;10137;49.406;19.484;2023-03-29T10:35:41;3.40;;;2.20;;
19951;SDS011;10137;49.406;19.484;2023-03-29T10:38:12;3.63;;;2.47;;
19951;SDS011;10137;49.406;19.484;2023-03-29T10:40:43;4.10;;;2.43;;
19951;SDS011;10137;49.406;19.484;2023-03-29T10:43:19;3.27;;;2.20;;
19951;SDS011;10137;49.406;19.484;2023-03-29T10:45:51;2.87;;;2.10;;
19951;SDS011;10137;49.406;19.484;2023-03-29T10:48:23;3.27;;;2.13;;
19951;SDS011;10137;49.406;19.484;2023-03-29T10:50:57;3.43;;;1.93;;
19951;SDS011;10137;49.406;19.484;2023-03-29T10:53:32;5.17;;;2.50;;
19951;SDS011;10137;49.406;19.484;2023-03-29T10:56:10;4.40;;;2.63;;
19951;SDS011;10137;49.406;19.484;2023-03-29T10:59:02;3.07;;;1.90;;
19951;SDS011;10137;49.406;19.484;2023-03-29T11:01:54;4.67;;;2.70;;
19951;SDS011;10137;49.406;19.484;2023-03-29T11:04:41;3.27;;;2.30;;
19951;SDS011;10137;49.406;19.484;2023-03-29T11:07:19;4.27;;;2.27;;
19951;SDS011;10137;49.406;19.484;2023-03-29T11:09:58;4.50;;;2.60;;
19951;SDS011;10137;49.406;19.484;2023-03-29T11:12:35;3.83;;;2.47;;
19951;SDS011;10137;49.406;19.484;2023-03-29T11:15:21;2.27;;;1.80;;
19951;SDS011;10137;49.406;19.484;2023-03-29T11:18:16;3.33;;;2.37;;
19951;SDS011;10137;49.406;19.484;2023-03-29T11:20:56;4.83;;;2.20;;
19951;SDS011;10137;49.406;19.484;2023-03-29T11:23:31;2.93;;;2.00;;
19951;SDS011;10137;49.406;19.484;2023-03-29T11:26:10;3.07;;;2.00;;
19951;SDS011;10137;49.406;19.484;2023-03-29T11:28:43;3.50;;;2.20;;
19951;SDS011;10137;49.406;19.484;2023-03-29T11:31:18;4.67;;;2.53;;
19951;SDS011;10137;49.406;19.484;2023-03-29T11:33:57;3.33;;;2.30;;
19951;SDS011;10137;49.406;19.484;2023-03-29T11:36:34;4.43;;;2.40;;
19951;SDS011;10137;49.406;19.484;2023-03-29T11:39:10;2.53;;;1.80;;
19951;SDS011;10137;49.406;19.484;2023-03-29T11:41:47;3.20;;;1.77;;
19951;SDS011;10137;49.406;19.484;2023-03-29T11:44:19;3.43;;;1.70;;
19951;SDS011;10137;49.406;19.484;2023-03-29T11:46:51;3.33;;;1.50;;
19951;SDS011;10137;49.406;19.484;2023-03-29T11:49:23;6.50;;;1.87;;
19951;SDS011;10137;49.406;19.484;2023-03-29T11:51:57;3.33;;;2.27;;
19951;SDS011;10137;49.406;19.484;2023-03-29T11:54:31;4.80;;;2.20;;
19951;SDS011;10137;49.406;19.484;2023-03-29T11:57:10;3.70;;;2.20;;
19951;SDS011;10137;49.406;19.484;2023-03-29T11:59:47;6.57;;;1.90;;
19951;SDS011;10137;49.406;19.484;2023-03-29T12:02:21;3.40;;;2.10;;
19951;SDS011;10137;49.406;19.484;2023-03-29T12:04:55;5.40;;;2.53;;
19951;SDS011;10137;49.406;19.484;2023-03-29T12:07:28;4.27;;;2.13;;
19951;SDS011;10137;49.406;19.484;2023-03-29T12:09:59;3.77;;;2.20;;
19951;SDS011;10137;49.406;19.484;2023-03-29T12:12:35;4.13;;;1.80;;
19951;SDS011;10137;49.406;19.484;2023-03-29T12:15:10;3.50;;;2.07;;
19951;SDS011;10137;49.406;19.484;2023-03-29T12:17:46;3.27;;;1.90;;
19951;SDS011;10137;49.406;19.484;2023-03-29T12:20:18;3.63;;;2.03;;
19951;SDS011;10137;49.406;19.484;2023-03-29T12:22:52;2.27;;;1.43;;
19951;SDS011;10137;49.406;19.484;2023-03-29T13:19:50;4.77;;;2.33;;
19951;SDS011;10137;49.406;19.484;2023-03-29T13:22:40;4.13;;;2.53;;
19951;SDS011;10137;49.406;19.484;2023-03-29T13:25:20;6.00;;;3.13;;
19951;SDS011;10137;49.406;19.484;2023-03-29T13:28:06;6.50;;;2.60;;
19951;SDS011;10137;49.406;19.484;2023-03-29T13:30:50;6.00;;;3.10;;
19951;SDS011;10137;49.406;19.484;2023-03-29T13:39:18;4.87;;;3.07;;
19951;SDS011;10137;49.406;19.484;2023-03-29T13:42:04;6.07;;;3.67;;
19951;SDS011;10137;49.406;19.484;2023-03-29T13:44:40;5.47;;;3.43;;
19951;SDS011;10137;49.406;19.484;2023-03-29T13:47:26;8.83;;;3.03;;
19951;SDS011;10137;49.406;19.484;2023-03-29T13:50:08;4.97;;;3.17;;
19951;SDS011;10137;49.406;19.484;2023-03-29T13:52:57;7.43;;;3.00;;
19951;SDS011;10137;49.406;19.484;2023-03-29T13:55:34;5.83;;;3.00;;
19951;SDS011;10137;49.406;19.484;2023-03-29T13:58:10;4.83;;;2.63;;
19951;SDS011;10137;49.406;19.484;2023-03-29T14:00:51;13.03;;;3.33;;
19951;SDS011;10137;49.406;19.484;2023-03-29T14:03:30;11.60;;;3.13;;
19951;SDS011;10137;49.406;19.484;2023-03-29T14:06:16;11.23;;;3.30;;
19951;SDS011;10137;49.406;19.484;2023-03-29T14:08:56;7.13;;;3.63;;
19951;SDS011;10137;49.406;19.484;2023-03-29T14:11:28;9.73;;;3.73;;
19951;SDS011;10137;49.406;19.484;2023-03-29T14:14:06;6.87;;;3.13;;
19951;SDS011;10137;49.406;19.484;2023-03-29T14:16:40;5.50;;;3.57;;
19951;SDS011;10137;49.406;19.484;2023-03-29T14:19:12;7.07;;;3.23;;
19951;SDS011;10137;49.406;19.484;2023-03-29T14:21:43;8.23;;;3.53;;
19951;SDS011;10137;49.406;19.484;2023-03-29T14:24:15;7.60;;;3.87;;
19951;SDS011;10137;49.406;19.484;2023-03-29T14:26:46;6.43;;;3.40;;
19951;SDS011;10137;49.406;19.484;2023-03-29T14:29:15;6.63;;;3.83;;
19951;SDS011;10137;49.406;19.484;2023-03-29T14:31:46;10.67;;;4.17;;
19951;SDS011;10137;49.406;19.484;2023-03-29T14:34:17;9.33;;;4.60;;
19951;SDS011;10137;49.406;19.484;2023-03-29T14:36:44;7.13;;;3.50;;
19951;SDS011;10137;49.406;19.484;2023-03-29T14:39:16;7.57;;;3.67;;
19951;SDS011;10137;49.406;19.484;2023-03-29T14:41:49;7.20;;;3.80;;
19951;SDS011;10137;49.406;19.484;2023-03-29T14:44:24;7.30;;;2.90;;
19951;SDS011;10137;49.406;19.484;2023-03-29T14:46:56;8.97;;;3.17;;
19951;SDS011;10137;49.406;19.484;2023-03-29T14:49:26;6.27;;;3.13;;
19951;SDS011;10137;49.406;19.484;2023-03-29T14:51:54;7.13;;;2.80;;
19951;SDS011;10137;49.406;19.484;2023-03-29T14:54:30;4.77;;;2.50;;
19951;SDS011;10137;49.406;19.484;2023-03-29T14:57:11;14.10;;;3.27;;
19951;SDS011;10137;49.406;19.484;2023-03-29T14:59:47;5.90;;;2.67;;
19951;SDS011;10137;49.406;19.484;2023-03-29T15:02:25;6.97;;;2.80;;
19951;SDS011;10137;49.406;19.484;2023-03-29T15:04:56;8.10;;;2.47;;
19951;SDS011;10137;49.406;19.484;2023-03-29T15:07:30;5.33;;;2.37;;
19951;SDS011;10137;49.406;19.484;2023-03-29T15:10:02;3.47;;;2.30;;
19951;SDS011;10137;49.406;19.484;2023-03-29T15:12:32;3.37;;;2.00;;
19951;SDS011;10137;49.406;19.484;2023-03-29T15:15:03;5.60;;;2.50;;
19951;SDS011;10137;49.406;19.484;2023-03-29T15:17:37;6.50;;;2.70;;
19951;SDS011;10137;49.406;19.484;2023-03-29T15:20:06;3.77;;;2.30;;
19951;SDS011;10137;49.406;19.484;2023-03-29T15:22:52;5.10;;;2.47;;
19951;SDS011;10137;49.406;19.484;2023-03-29T15:25:31;7.50;;;3.00;;
19951;SDS011;10137;49.406;19.484;2023-03-29T15:28:03;4.33;;;2.53;;
19951;SDS011;10137;49.406;19.484;2023-03-29T15:30:33;6.50;;;4.37;;
19951;SDS011;10137;49.406;19.484;2023-03-29T15:33:17;9.83;;;4.20;;
19951;SDS011;10137;49.406;19.484;2023-03-29T15:35:51;7.33;;;3.43;;
19951;SDS011;10137;49.406;19.484;2023-03-29T15:38:21;7.40;;;3.50;;
19951;SDS011;10137;49.406;19.484;2023-03-29T15:40:51;8.13;;;4.13;;
19951;SDS011;10137;49.406;19.484;2023-03-29T15:43:22;13.53;;;6.20;;
19951;SDS011;10137;49.406;19.484;2023-03-29T15:45:51;21.70;;;8.23;;
19951;SDS011;10137;49.406;19.484;2023-03-29T15:48:21;20.77;;;9.10;;
19951;SDS011;10137;49.406;19.484;2023-03-29T15:50:51;23.27;;;10.77;;
19951;SDS011;10137;49.406;19.484;2023-03-29T15:53:20;18.80;;;8.33;;
19951;SDS011;10137;49.406;19.484;2023-03-29T15:55:49;14.13;;;6.80;;
19951;SDS011;10137;49.406;19.484;2023-03-29T15:58:28;13.30;;;7.43;;